sensor_id;sensor_type;location;lat;lon;timestamp;P1;durP1;ratioP1;P2;durP2;ratioP2
3791;SDS011;1911;53.768;11.474;2023-04-12T00:00:22;12.67;;;6.60;;
3791;SDS011;1911;53.768;11.474;2023-04-12T00:02:48;10.63;;;6.90;;
3791;SDS011;1911;53.768;11.474;2023-04-12T00:05:18;16.20;;;8.77;;
3791;SDS011;1911;53.768;11.474;2023-04-12T00:07:51;14.17;;;6.80;;
3791;SDS011;1911;53.768;11.474;2023-04-12T00:10:17;12.30;;;7.50;;
3791;SDS011;1911;53.768;11.474;2023-04-12T00:12:43;13.27;;;6.57;;
3791;SDS011;1911;53.768;11.474;2023-04-12T00:15:09;14.47;;;6.80;;
3791;SDS011;1911;53.768;11.474;2023-04-12T00:17:35;12.47;;;7.07;;
3791;SDS011;1911;53.768;11.474;2023-04-12T00:20:01;14.57;;;7.33;;
3791;SDS011;1911;53.768;11.474;2023-04-12T00:22:29;15.97;;;7.60;;
3791;SDS011;1911;53.768;11.474;2023-04-12T00:24:55;17.40;;;6.93;;
3791;SDS011;1911;53.768;11.474;2023-04-12T00:27:22;12.23;;;7.07;;
3791;SDS011;1911;53.768;11.474;2023-04-12T00:29:47;11.50;;;6.10;;
3791;SDS011;1911;53.768;11.474;2023-04-12T00:32:13;14.00;;;7.60;;
3791;SDS011;1911;53.768;11.474;2023-04-12T00:34:38;17.67;;;6.90;;
3791;SDS011;1911;53.768;11.474;2023-04-12T00:37:04;16.87;;;7.70;;
3791;SDS011;1911;53.768;11.474;2023-04-12T00:39:30;12.20;;;6.17;;
3791;SDS011;1911;53.768;11.474;2023-04-12T00:41:55;13.57;;;6.10;;
3791;SDS011;1911;53.768;11.474;2023-04-12T00:44:21;16.57;;;7.13;;
3791;SDS011;1911;53.768;11.474;2023-04-12T00:46:47;10.57;;;7.27;;
3791;SDS011;1911;53.768;11.474;2023-04-12T00:49:13;10.00;;;4.90;;
3791;SDS011;1911;53.768;11.474;2023-04-12T00:51:39;9.60;;;6.33;;
3791;SDS011;1911;53.768;11.474;2023-04-12T00:54:05;10.53;;;6.83;;
3791;SDS011;1911;53.768;11.474;2023-04-12T00:56:32;17.63;;;6.53;;
3791;SDS011;1911;53.768;11.474;2023-04-12T00:58:57;9.53;;;5.57;;
3791;SDS011;1911;53.768;11.474;2023-04-12T01:01:26;14.33;;;6.60;;
3791;SDS011;1911;53.768;11.474;2023-04-12T04:33:16;5.27;;;3.30;;
3791;SDS011;1911;53.768;11.474;2023-04-12T04:43:21;5.37;;;2.57;;
3791;SDS011;1911;53.768;11.474;2023-04-12T05:13:59;6.10;;;2.30;;
3791;SDS011;1911;53.768;11.474;2023-04-12T05:50:35;5.80;;;2.20;;
3791;SDS011;1911;53.768;11.474;2023-04-12T05:53:34;6.10;;;1.80;;
3791;SDS011;1911;53.768;11.474;2023-04-12T05:55:59;3.40;;;1.50;;
3791;SDS011;1911;53.768;11.474;2023-04-12T05:58:25;7.13;;;2.10;;
3791;SDS011;1911;53.768;11.474;2023-04-12T06:00:51;3.90;;;1.50;;
3791;SDS011;1911;53.768;11.474;2023-04-12T06:03:18;7.73;;;2.00;;
3791;SDS011;1911;53.768;11.474;2023-04-12T06:05:43;3.50;;;1.93;;
3791;SDS011;1911;53.768;11.474;2023-04-12T06:08:09;5.97;;;1.70;;
3791;SDS011;1911;53.768;11.474;2023-04-12T06:10:36;7.87;;;1.83;;
3791;SDS011;1911;53.768;11.474;2023-04-12T06:13:02;9.23;;;1.73;;
3791;SDS011;1911;53.768;11.474;2023-04-12T06:15:27;4.47;;;1.97;;
3791;SDS011;1911;53.768;11.474;2023-04-12T06:17:55;4.47;;;1.93;;
3791;SDS011;1911;53.768;11.474;2023-04-12T06:20:22;3.10;;;1.30;;
3791;SDS011;1911;53.768;11.474;2023-04-12T06:22:48;2.63;;;1.40;;
3791;SDS011;1911;53.768;11.474;2023-04-12T06:25:13;3.00;;;1.50;;
3791;SDS011;1911;53.768;11.474;2023-04-12T06:27:40;3.83;;;1.50;;
3791;SDS011;1911;53.768;11.474;2023-04-12T06:30:06;3.90;;;0.93;;
3791;SDS011;1911;53.768;11.474;2023-04-12T06:32:32;3.90;;;2.20;;
3791;SDS011;1911;53.768;11.474;2023-04-12T06:34:58;2.07;;;1.43;;
3791;SDS011;1911;53.768;11.474;2023-04-12T06:37:23;1.80;;;0.97;;
3791;SDS011;1911;53.768;11.474;2023-04-12T06:39:49;5.33;;;1.20;;
3791;SDS011;1911;53.768;11.474;2023-04-12T06:42:15;2.03;;;1.30;;
3791;SDS011;1911;53.768;11.474;2023-04-12T06:44:41;5.77;;;1.63;;
3791;SDS011;1911;53.768;11.474;2023-04-12T06:47:07;3.20;;;1.80;;
3791;SDS011;1911;53.768;11.474;2023-04-12T06:49:33;4.30;;;1.73;;
3791;SDS011;1911;53.768;11.474;2023-04-12T06:51:59;8.90;;;1.60;;
3791;SDS011;1911;53.768;11.474;2023-04-12T06:54:24;7.60;;;1.60;;
3791;SDS011;1911;53.768;11.474;2023-04-12T06:56:50;2.40;;;1.33;;
3791;SDS011;1911;53.768;11.474;2023-04-12T06:59:16;2.20;;;1.23;;
3791;SDS011;1911;53.768;11.474;2023-04-12T07:01:41;2.07;;;1.10;;
3791;SDS011;1911;53.768;11.474;2023-04-12T07:04:07;6.23;;;1.50;;
3791;SDS011;1911;53.768;11.474;2023-04-12T07:06:32;4.30;;;1.43;;
3791;SDS011;1911;53.768;11.474;2023-04-12T07:08:58;2.53;;;1.03;;
3791;SDS011;1911;53.768;11.474;2023-04-12T07:11:24;2.43;;;1.00;;
3791;SDS011;1911;53.768;11.474;2023-04-12T07:13:49;6.47;;;1.00;;
3791;SDS011;1911;53.768;11.474;2023-04-12T07:16:16;1.83;;;0.93;;
3791;SDS011;1911;53.768;11.474;2023-04-12T07:18:41;3.77;;;1.10;;
3791;SDS011;1911;53.768;11.474;2023-04-12T07:21:08;7.03;;;1.57;;
3791;SDS011;1911;53.768;11.474;2023-04-12T07:23:33;2.53;;;0.93;;
3791;SDS011;1911;53.768;11.474;2023-04-12T07:26:00;3.33;;;1.47;;
3791;SDS011;1911;53.768;11.474;2023-04-12T07:28:26;8.40;;;1.17;;
3791;SDS011;1911;53.768;11.474;2023-04-12T07:30:52;3.00;;;1.40;;
3791;SDS011;1911;53.768;11.474;2023-04-12T07:33:18;2.13;;;1.10;;
3791;SDS011;1911;53.768;11.474;2023-04-12T07:35:43;4.37;;;1.30;;
3791;SDS011;1911;53.768;11.474;2023-04-12T07:38:09;4.70;;;1.40;;
3791;SDS011;1911;53.768;11.474;2023-04-12T07:40:35;2.83;;;0.80;;
3791;SDS011;1911;53.768;11.474;2023-04-12T07:43:00;7.37;;;1.60;;
3791;SDS011;1911;53.768;11.474;2023-04-12T07:45:26;3.40;;;1.47;;
3791;SDS011;1911;53.768;11.474;2023-04-12T07:47:51;3.57;;;1.00;;
3791;SDS011;1911;53.768;11.474;2023-04-12T07:50:17;2.90;;;0.90;;
3791;SDS011;1911;53.768;11.474;2023-04-12T07:52:43;2.90;;;0.90;;
3791;SDS011;1911;53.768;11.474;2023-04-12T07:55:08;2.13;;;1.20;;
3791;SDS011;1911;53.768;11.474;2023-04-12T07:57:34;3.87;;;1.20;;
3791;SDS011;1911;53.768;11.474;2023-04-12T08:00:00;2.33;;;1.23;;
3791;SDS011;1911;53.768;11.474;2023-04-12T08:02:25;3.73;;;1.00;;
3791;SDS011;1911;53.768;11.474;2023-04-12T08:04:51;3.50;;;1.00;;
3791;SDS011;1911;53.768;11.474;2023-04-12T08:07:17;3.60;;;1.00;;
3791;SDS011;1911;53.768;11.474;2023-04-12T08:09:43;3.27;;;0.97;;
3791;SDS011;1911;53.768;11.474;2023-04-12T08:12:09;7.80;;;1.23;;
3791;SDS011;1911;53.768;11.474;2023-04-12T08:14:35;1.43;;;1.20;;
3791;SDS011;1911;53.768;11.474;2023-04-12T08:17:01;4.80;;;1.33;;
3791;SDS011;1911;53.768;11.474;2023-04-12T08:19:26;1.67;;;1.30;;
3791;SDS011;1911;53.768;11.474;2023-04-12T08:21:52;1.80;;;1.00;;
3791;SDS011;1911;53.768;11.474;2023-04-12T08:24:18;2.53;;;1.20;;
3791;SDS011;1911;53.768;11.474;2023-04-12T08:26:44;2.00;;;1.03;;
3791;SDS011;1911;53.768;11.474;2023-04-12T08:29:10;6.27;;;1.10;;
3791;SDS011;1911;53.768;11.474;2023-04-12T08:31:36;2.33;;;1.23;;
3791;SDS011;1911;53.768;11.474;2023-04-12T08:34:02;2.10;;;0.97;;
3791;SDS011;1911;53.768;11.474;2023-04-12T08:36:28;2.17;;;1.10;;
3791;SDS011;1911;53.768;11.474;2023-04-12T08:38:57;3.20;;;1.23;;
3791;SDS011;1911;53.768;11.474;2023-04-12T08:41:26;5.67;;;1.37;;
3791;SDS011;1911;53.768;11.474;2023-04-12T08:43:52;8.07;;;1.97;;
3791;SDS011;1911;53.768;11.474;2023-04-12T08:46:19;2.40;;;0.97;;
3791;SDS011;1911;53.768;11.474;2023-04-12T08:48:46;1.97;;;1.07;;
3791;SDS011;1911;53.768;11.474;2023-04-12T08:51:17;4.53;;;1.30;;
3791;SDS011;1911;53.768;11.474;2023-04-12T08:53:44;4.90;;;1.63;;
3791;SDS011;1911;53.768;11.474;2023-04-12T08:56:10;4.27;;;1.30;;
3791;SDS011;1911;53.768;11.474;2023-04-12T08:58:37;3.23;;;1.00;;
3791;SDS011;1911;53.768;11.474;2023-04-12T09:01:09;2.17;;;0.90;;
3791;SDS011;1911;53.768;11.474;2023-04-12T09:03:40;3.13;;;1.13;;
3791;SDS011;1911;53.768;11.474;2023-04-12T09:06:06;4.30;;;1.20;;
3791;SDS011;1911;53.768;11.474;2023-04-12T09:08:32;5.43;;;1.33;;
3791;SDS011;1911;53.768;11.474;2023-04-12T09:10:58;1.40;;;0.80;;
3791;SDS011;1911;53.768;11.474;2023-04-12T09:13:31;1.60;;;0.80;;
3791;SDS011;1911;53.768;11.474;2023-04-12T09:15:58;1.60;;;0.90;;
3791;SDS011;1911;53.768;11.474;2023-04-12T09:18:24;1.87;;;1.37;;
3791;SDS011;1911;53.768;11.474;2023-04-12T09:20:56;2.60;;;1.10;;
3791;SDS011;1911;53.768;11.474;2023-04-12T09:23:32;4.90;;;1.17;;
3791;SDS011;1911;53.768;11.474;2023-04-12T09:26:00;3.87;;;1.13;;
3791;SDS011;1911;53.768;11.474;2023-04-12T09:28:26;3.47;;;1.20;;
3791;SDS011;1911;53.768;11.474;2023-04-12T09:30:54;4.90;;;1.93;;
3791;SDS011;1911;53.768;11.474;2023-04-12T09:33:21;2.97;;;1.87;;
3791;SDS011;1911;53.768;11.474;2023-04-12T09:36:00;2.80;;;1.70;;
3791;SDS011;1911;53.768;11.474;2023-04-12T09:38:30;6.80;;;1.50;;
3791;SDS011;1911;53.768;11.474;2023-04-12T09:40:56;4.57;;;1.57;;
3791;SDS011;1911;53.768;11.474;2023-04-12T09:43:38;3.87;;;1.27;;
3791;SDS011;1911;53.768;11.474;2023-04-12T09:46:11;3.47;;;1.47;;
3791;SDS011;1911;53.768;11.474;2023-04-12T09:48:38;2.50;;;1.33;;
3791;SDS011;1911;53.768;11.474;2023-04-12T09:51:05;3.40;;;1.60;;
3791;SDS011;1911;53.768;11.474;2023-04-12T09:53:32;4.23;;;1.07;;
3791;SDS011;1911;53.768;11.474;2023-04-12T09:56:00;4.90;;;1.47;;
3791;SDS011;1911;53.768;11.474;2023-04-12T09:58:27;4.67;;;1.63;;
3791;SDS011;1911;53.768;11.474;2023-04-12T10:00:57;4.00;;;1.73;;
3791;SDS011;1911;53.768;11.474;2023-04-12T10:03:26;3.60;;;0.90;;
3791;SDS011;1911;53.768;11.474;2023-04-12T10:05:53;3.93;;;1.33;;
3791;SDS011;1911;53.768;11.474;2023-04-12T10:08:19;6.17;;;1.33;;
3791;SDS011;1911;53.768;11.474;2023-04-12T10:10:49;5.10;;;1.70;;
3791;SDS011;1911;53.768;11.474;2023-04-12T10:13:17;3.23;;;1.60;;
3791;SDS011;1911;53.768;11.474;2023-04-12T10:15:45;5.83;;;1.27;;
3791;SDS011;1911;53.768;11.474;2023-04-12T10:18:13;4.67;;;1.40;;
3791;SDS011;1911;53.768;11.474;2023-04-12T10:20:42;2.90;;;1.60;;
3791;SDS011;1911;53.768;11.474;2023-04-12T10:23:07;4.00;;;1.53;;
3791;SDS011;1911;53.768;11.474;2023-04-12T10:25:34;5.33;;;1.47;;
3791;SDS011;1911;53.768;11.474;2023-04-12T10:28:14;6.70;;;1.40;;
3791;SDS011;1911;53.768;11.474;2023-04-12T10:30:41;2.50;;;1.37;;
3791;SDS011;1911;53.768;11.474;2023-04-12T10:33:10;4.70;;;1.43;;
3791;SDS011;1911;53.768;11.474;2023-04-12T10:38:18;2.50;;;1.53;;
3791;SDS011;1911;53.768;11.474;2023-04-12T10:43:40;2.70;;;1.37;;
3791;SDS011;1911;53.768;11.474;2023-04-12T10:46:46;6.90;;;1.10;;
3791;SDS011;1911;53.768;11.474;2023-04-12T10:49:11;1.80;;;1.00;;
3791;SDS011;1911;53.768;11.474;2023-04-12T10:51:38;2.40;;;1.17;;
3791;SDS011;1911;53.768;11.474;2023-04-12T10:59:04;2.20;;;1.10;;
3791;SDS011;1911;53.768;11.474;2023-04-12T11:01:33;4.57;;;1.20;;
3791;SDS011;1911;53.768;11.474;2023-04-12T11:04:19;2.07;;;1.10;;
3791;SDS011;1911;53.768;11.474;2023-04-12T11:11:42;3.83;;;1.80;;
3791;SDS011;1911;53.768;11.474;2023-04-12T11:14:11;2.37;;;1.40;;
3791;SDS011;1911;53.768;11.474;2023-04-12T11:19:33;3.20;;;1.13;;
3791;SDS011;1911;53.768;11.474;2023-04-12T11:22:05;2.07;;;1.03;;
3791;SDS011;1911;53.768;11.474;2023-04-12T11:24:32;2.23;;;1.30;;
3791;SDS011;1911;53.768;11.474;2023-04-12T11:27:01;9.80;;;1.70;;
3791;SDS011;1911;53.768;11.474;2023-04-12T11:29:28;1.27;;;0.73;;
3791;SDS011;1911;53.768;11.474;2023-04-12T11:31:56;3.60;;;1.57;;
3791;SDS011;1911;53.768;11.474;2023-04-12T11:34:22;2.43;;;1.47;;
3791;SDS011;1911;53.768;11.474;2023-04-12T11:36:51;2.33;;;1.00;;
3791;SDS011;1911;53.768;11.474;2023-04-12T11:39:18;4.57;;;1.60;;
3791;SDS011;1911;53.768;11.474;2023-04-12T11:41:48;3.10;;;1.10;;
3791;SDS011;1911;53.768;11.474;2023-04-12T11:44:14;3.07;;;1.60;;
3791;SDS011;1911;53.768;11.474;2023-04-12T11:46:43;1.80;;;0.83;;
3791;SDS011;1911;53.768;11.474;2023-04-12T11:49:09;2.90;;;1.37;;
3791;SDS011;1911;53.768;11.474;2023-04-12T11:51:44;6.17;;;1.13;;
3791;SDS011;1911;53.768;11.474;2023-04-12T11:54:11;8.30;;;2.07;;
3791;SDS011;1911;53.768;11.474;2023-04-12T11:56:37;9.00;;;1.53;;
3791;SDS011;1911;53.768;11.474;2023-04-12T11:59:03;4.17;;;1.40;;
3791;SDS011;1911;53.768;11.474;2023-04-12T12:01:30;1.30;;;0.70;;
3791;SDS011;1911;53.768;11.474;2023-04-12T12:03:56;1.87;;;0.80;;
3791;SDS011;1911;53.768;11.474;2023-04-12T12:06:23;3.53;;;1.10;;
3791;SDS011;1911;53.768;11.474;2023-04-12T12:08:49;6.90;;;2.00;;
3791;SDS011;1911;53.768;11.474;2023-04-12T12:11:16;4.90;;;1.70;;
3791;SDS011;1911;53.768;11.474;2023-04-12T12:16:16;2.97;;;1.53;;
3791;SDS011;1911;53.768;11.474;2023-04-12T12:18:47;4.17;;;1.40;;
3791;SDS011;1911;53.768;11.474;2023-04-12T12:21:13;5.03;;;1.43;;
3791;SDS011;1911;53.768;11.474;2023-04-12T12:23:41;3.07;;;1.60;;
3791;SDS011;1911;53.768;11.474;2023-04-12T12:26:07;3.93;;;2.07;;
3791;SDS011;1911;53.768;11.474;2023-04-12T12:28:36;3.80;;;1.43;;
3791;SDS011;1911;53.768;11.474;2023-04-12T12:31:06;3.03;;;1.67;;
3791;SDS011;1911;53.768;11.474;2023-04-12T12:33:37;4.80;;;2.70;;
3791;SDS011;1911;53.768;11.474;2023-04-12T12:36:04;6.60;;;1.80;;
3791;SDS011;1911;53.768;11.474;2023-04-12T12:38:34;3.83;;;1.60;;
3791;SDS011;1911;53.768;11.474;2023-04-12T12:41:12;5.20;;;1.83;;
3791;SDS011;1911;53.768;11.474;2023-04-12T12:43:42;3.13;;;1.63;;
3791;SDS011;1911;53.768;11.474;2023-04-12T12:46:11;2.70;;;1.67;;
3791;SDS011;1911;53.768;11.474;2023-04-12T12:48:40;2.80;;;1.50;;
3791;SDS011;1911;53.768;11.474;2023-04-12T12:51:09;1.93;;;1.30;;
3791;SDS011;1911;53.768;11.474;2023-04-12T12:53:36;5.67;;;1.40;;
3791;SDS011;1911;53.768;11.474;2023-04-12T12:56:03;2.23;;;1.97;;
3791;SDS011;1911;53.768;11.474;2023-04-12T12:58:29;6.60;;;2.60;;
3791;SDS011;1911;53.768;11.474;2023-04-12T13:00:55;3.20;;;1.10;;
3791;SDS011;1911;53.768;11.474;2023-04-12T13:03:20;2.83;;;1.70;;
3791;SDS011;1911;53.768;11.474;2023-04-12T13:05:46;3.10;;;1.90;;
3791;SDS011;1911;53.768;11.474;2023-04-12T13:08:12;6.17;;;1.67;;
3791;SDS011;1911;53.768;11.474;2023-04-12T13:10:38;4.27;;;1.67;;
3791;SDS011;1911;53.768;11.474;2023-04-12T13:13:04;1.90;;;1.30;;
3791;SDS011;1911;53.768;11.474;2023-04-12T13:15:29;2.87;;;1.80;;
3791;SDS011;1911;53.768;11.474;2023-04-12T13:17:55;1.87;;;1.00;;
3791;SDS011;1911;53.768;11.474;2023-04-12T13:20:21;8.63;;;1.27;;
3791;SDS011;1911;53.768;11.474;2023-04-12T13:22:47;3.20;;;1.30;;
3791;SDS011;1911;53.768;11.474;2023-04-12T13:25:13;4.93;;;1.93;;
3791;SDS011;1911;53.768;11.474;2023-04-12T13:27:39;3.53;;;1.10;;
3791;SDS011;1911;53.768;11.474;2023-04-12T13:30:04;3.80;;;1.73;;
3791;SDS011;1911;53.768;11.474;2023-04-12T13:32:31;2.70;;;1.17;;
3791;SDS011;1911;53.768;11.474;2023-04-12T13:35:05;2.10;;;1.43;;
3791;SDS011;1911;53.768;11.474;2023-04-12T13:37:33;2.37;;;1.53;;
3791;SDS011;1911;53.768;11.474;2023-04-12T13:39:58;4.27;;;2.00;;
3791;SDS011;1911;53.768;11.474;2023-04-12T13:42:24;2.03;;;1.17;;
3791;SDS011;1911;53.768;11.474;2023-04-12T13:44:50;6.50;;;1.70;;
3791;SDS011;1911;53.768;11.474;2023-04-12T13:47:15;2.93;;;1.30;;
3791;SDS011;1911;53.768;11.474;2023-04-12T13:49:44;6.13;;;1.87;;
3791;SDS011;1911;53.768;11.474;2023-04-12T13:52:09;3.20;;;1.10;;
3791;SDS011;1911;53.768;11.474;2023-04-12T13:54:35;2.63;;;1.30;;
3791;SDS011;1911;53.768;11.474;2023-04-12T13:57:03;5.07;;;1.60;;
3791;SDS011;1911;53.768;11.474;2023-04-12T13:59:29;2.03;;;1.10;;
3791;SDS011;1911;53.768;11.474;2023-04-12T14:01:58;4.23;;;1.77;;
3791;SDS011;1911;53.768;11.474;2023-04-12T14:04:28;4.73;;;1.47;;
3791;SDS011;1911;53.768;11.474;2023-04-12T14:06:54;5.07;;;1.67;;
3791;SDS011;1911;53.768;11.474;2023-04-12T14:09:24;3.77;;;1.80;;
3791;SDS011;1911;53.768;11.474;2023-04-12T14:11:57;4.20;;;2.07;;
3791;SDS011;1911;53.768;11.474;2023-04-12T14:14:25;4.63;;;1.47;;
3791;SDS011;1911;53.768;11.474;2023-04-12T14:16:52;7.50;;;2.23;;
3791;SDS011;1911;53.768;11.474;2023-04-12T14:19:22;2.37;;;1.40;;
3791;SDS011;1911;53.768;11.474;2023-04-12T14:21:48;2.70;;;1.70;;
3791;SDS011;1911;53.768;11.474;2023-04-12T16:15:42;9.40;;;4.07;;
3791;SDS011;1911;53.768;11.474;2023-04-12T16:43:10;6.47;;;2.80;;
3791;SDS011;1911;53.768;11.474;2023-04-12T16:53:36;4.00;;;2.87;;
3791;SDS011;1911;53.768;11.474;2023-04-12T17:20:41;9.07;;;2.93;;
3791;SDS011;1911;53.768;11.474;2023-04-12T18:52:15;5.43;;;3.93;;
3791;SDS011;1911;53.768;11.474;2023-04-12T18:54:41;9.03;;;3.33;;
3791;SDS011;1911;53.768;11.474;2023-04-12T18:57:06;10.40;;;3.43;;
3791;SDS011;1911;53.768;11.474;2023-04-12T18:59:32;3.93;;;2.20;;
3791;SDS011;1911;53.768;11.474;2023-04-12T19:01:57;4.37;;;2.60;;
3791;SDS011;1911;53.768;11.474;2023-04-12T19:04:23;4.70;;;2.90;;
3791;SDS011;1911;53.768;11.474;2023-04-12T19:06:49;4.60;;;2.90;;
3791;SDS011;1911;53.768;11.474;2023-04-12T19:09:14;8.07;;;3.40;;
3791;SDS011;1911;53.768;11.474;2023-04-12T19:11:40;4.40;;;2.37;;
3791;SDS011;1911;53.768;11.474;2023-04-12T19:14:06;3.00;;;2.70;;
3791;SDS011;1911;53.768;11.474;2023-04-12T19:16:32;3.80;;;2.80;;
3791;SDS011;1911;53.768;11.474;2023-04-12T19:18:57;3.47;;;2.90;;
3791;SDS011;1911;53.768;11.474;2023-04-12T19:21:24;5.27;;;3.20;;
3791;SDS011;1911;53.768;11.474;2023-04-12T19:23:52;3.20;;;2.80;;
3791;SDS011;1911;53.768;11.474;2023-04-12T19:26:17;6.53;;;3.17;;
3791;SDS011;1911;53.768;11.474;2023-04-12T19:28:44;5.57;;;3.70;;
3791;SDS011;1911;53.768;11.474;2023-04-12T19:31:10;4.07;;;2.77;;
3791;SDS011;1911;53.768;11.474;2023-04-12T19:33:38;4.67;;;3.20;;
3791;SDS011;1911;53.768;11.474;2023-04-12T19:36:05;3.27;;;2.60;;
3791;SDS011;1911;53.768;11.474;2023-04-12T19:38:31;2.70;;;2.43;;
3791;SDS011;1911;53.768;11.474;2023-04-12T19:40:57;4.60;;;2.80;;
3791;SDS011;1911;53.768;11.474;2023-04-12T19:43:22;4.70;;;2.77;;
3791;SDS011;1911;53.768;11.474;2023-04-12T19:45:49;4.60;;;2.53;;
3791;SDS011;1911;53.768;11.474;2023-04-12T19:48:16;5.43;;;3.03;;
3791;SDS011;1911;53.768;11.474;2023-04-12T19:50:42;5.03;;;3.17;;
3791;SDS011;1911;53.768;11.474;2023-04-12T19:53:11;4.27;;;2.70;;
3791;SDS011;1911;53.768;11.474;2023-04-12T19:55:41;4.33;;;3.23;;
3791;SDS011;1911;53.768;11.474;2023-04-12T19:58:08;4.90;;;3.03;;
3791;SDS011;1911;53.768;11.474;2023-04-12T20:00:34;4.43;;;3.17;;
3791;SDS011;1911;53.768;11.474;2023-04-12T20:03:03;3.77;;;2.90;;
3791;SDS011;1911;53.768;11.474;2023-04-12T20:05:29;4.40;;;2.83;;
3791;SDS011;1911;53.768;11.474;2023-04-12T20:07:55;5.13;;;2.70;;
3791;SDS011;1911;53.768;11.474;2023-04-12T20:10:20;5.17;;;3.40;;
3791;SDS011;1911;53.768;11.474;2023-04-12T20:12:46;9.70;;;3.70;;
3791;SDS011;1911;53.768;11.474;2023-04-12T20:15:12;5.77;;;3.37;;
3791;SDS011;1911;53.768;11.474;2023-04-12T20:17:38;5.00;;;3.43;;
3791;SDS011;1911;53.768;11.474;2023-04-12T20:20:05;5.57;;;3.70;;
3791;SDS011;1911;53.768;11.474;2023-04-12T20:22:35;6.70;;;2.80;;
3791;SDS011;1911;53.768;11.474;2023-04-12T20:25:05;5.20;;;4.40;;
3791;SDS011;1911;53.768;11.474;2023-04-12T20:27:33;4.50;;;2.53;;
3791;SDS011;1911;53.768;11.474;2023-04-12T20:30:01;5.20;;;2.57;;
3791;SDS011;1911;53.768;11.474;2023-04-12T20:32:31;5.37;;;3.47;;
3791;SDS011;1911;53.768;11.474;2023-04-12T20:34:58;6.67;;;3.43;;
3791;SDS011;1911;53.768;11.474;2023-04-12T20:37:24;4.33;;;3.43;;
3791;SDS011;1911;53.768;11.474;2023-04-12T20:39:49;5.97;;;3.47;;
3791;SDS011;1911;53.768;11.474;2023-04-12T20:42:15;6.20;;;3.70;;
3791;SDS011;1911;53.768;11.474;2023-04-12T20:44:44;6.00;;;3.40;;
3791;SDS011;1911;53.768;11.474;2023-04-12T20:47:11;4.30;;;3.17;;
3791;SDS011;1911;53.768;11.474;2023-04-12T20:49:37;5.40;;;4.00;;
3791;SDS011;1911;53.768;11.474;2023-04-12T20:52:02;6.70;;;4.43;;
3791;SDS011;1911;53.768;11.474;2023-04-12T20:54:28;9.43;;;4.43;;
3791;SDS011;1911;53.768;11.474;2023-04-12T20:56:56;5.70;;;3.83;;
3791;SDS011;1911;53.768;11.474;2023-04-12T20:59:23;5.20;;;4.17;;
3791;SDS011;1911;53.768;11.474;2023-04-12T21:01:53;5.77;;;4.13;;
3791;SDS011;1911;53.768;11.474;2023-04-12T21:04:19;4.10;;;3.17;;
3791;SDS011;1911;53.768;11.474;2023-04-12T21:06:46;6.93;;;3.63;;
3791;SDS011;1911;53.768;11.474;2023-04-12T21:09:12;7.03;;;4.27;;
3791;SDS011;1911;53.768;11.474;2023-04-12T21:11:41;8.00;;;4.63;;
3791;SDS011;1911;53.768;11.474;2023-04-12T21:14:07;5.63;;;3.90;;
3791;SDS011;1911;53.768;11.474;2023-04-12T21:16:37;7.30;;;3.90;;
3791;SDS011;1911;53.768;11.474;2023-04-12T21:19:04;4.80;;;3.70;;
3791;SDS011;1911;53.768;11.474;2023-04-12T21:21:33;8.67;;;4.57;;
3791;SDS011;1911;53.768;11.474;2023-04-12T21:24:00;5.73;;;4.60;;
3791;SDS011;1911;53.768;11.474;2023-04-12T21:26:27;8.60;;;4.43;;
3791;SDS011;1911;53.768;11.474;2023-04-12T21:28:56;15.13;;;3.97;;
3791;SDS011;1911;53.768;11.474;2023-04-12T21:31:22;7.43;;;4.23;;
3791;SDS011;1911;53.768;11.474;2023-04-12T21:33:48;10.93;;;5.23;;
3791;SDS011;1911;53.768;11.474;2023-04-12T21:36:14;8.07;;;5.30;;
3791;SDS011;1911;53.768;11.474;2023-04-12T21:38:40;9.33;;;5.30;;
3791;SDS011;1911;53.768;11.474;2023-04-12T21:41:06;6.73;;;4.70;;
3791;SDS011;1911;53.768;11.474;2023-04-12T21:43:33;9.47;;;5.57;;
3791;SDS011;1911;53.768;11.474;2023-04-12T21:46:03;9.23;;;4.87;;
3791;SDS011;1911;53.768;11.474;2023-04-12T21:48:33;6.87;;;3.73;;
3791;SDS011;1911;53.768;11.474;2023-04-12T21:51:00;7.77;;;4.83;;
3791;SDS011;1911;53.768;11.474;2023-04-12T21:53:30;8.33;;;4.17;;
3791;SDS011;1911;53.768;11.474;2023-04-12T21:55:57;3.40;;;2.80;;
3791;SDS011;1911;53.768;11.474;2023-04-12T21:58:25;4.10;;;2.67;;
3791;SDS011;1911;53.768;11.474;2023-04-12T22:00:55;4.97;;;2.30;;
3791;SDS011;1911;53.768;11.474;2023-04-12T22:03:22;2.63;;;2.07;;
3791;SDS011;1911;53.768;11.474;2023-04-12T22:05:48;5.80;;;2.97;;
3791;SDS011;1911;53.768;11.474;2023-04-12T22:08:14;8.03;;;2.90;;
3791;SDS011;1911;53.768;11.474;2023-04-12T22:10:39;4.13;;;3.13;;
3791;SDS011;1911;53.768;11.474;2023-04-12T22:13:05;7.30;;;3.13;;
3791;SDS011;1911;53.768;11.474;2023-04-12T22:15:34;4.40;;;2.87;;
3791;SDS011;1911;53.768;11.474;2023-04-12T22:18:00;4.13;;;2.73;;
3791;SDS011;1911;53.768;11.474;2023-04-12T22:20:26;5.17;;;2.50;;
3791;SDS011;1911;53.768;11.474;2023-04-12T22:22:55;2.60;;;2.20;;
3791;SDS011;1911;53.768;11.474;2023-04-12T22:25:21;2.67;;;2.30;;
3791;SDS011;1911;53.768;11.474;2023-04-12T22:27:47;3.40;;;1.90;;
3791;SDS011;1911;53.768;11.474;2023-04-12T22:30:13;3.73;;;2.37;;
3791;SDS011;1911;53.768;11.474;2023-04-12T22:32:39;2.20;;;1.90;;
3791;SDS011;1911;53.768;11.474;2023-04-12T22:35:05;4.83;;;2.90;;
3791;SDS011;1911;53.768;11.474;2023-04-12T22:37:31;3.20;;;1.50;;
3791;SDS011;1911;53.768;11.474;2023-04-12T22:39:57;2.80;;;1.90;;
3791;SDS011;1911;53.768;11.474;2023-04-12T22:42:27;2.30;;;1.50;;
3791;SDS011;1911;53.768;11.474;2023-04-12T22:44:53;4.33;;;1.80;;
3791;SDS011;1911;53.768;11.474;2023-04-12T22:47:22;3.03;;;1.83;;
3791;SDS011;1911;53.768;11.474;2023-04-12T22:49:49;2.30;;;1.53;;
3791;SDS011;1911;53.768;11.474;2023-04-12T22:52:17;2.20;;;1.80;;
3791;SDS011;1911;53.768;11.474;2023-04-12T22:54:43;3.07;;;1.90;;
3791;SDS011;1911;53.768;11.474;2023-04-12T22:57:09;3.40;;;2.00;;
3791;SDS011;1911;53.768;11.474;2023-04-12T22:59:35;3.63;;;2.20;;
3791;SDS011;1911;53.768;11.474;2023-04-12T23:02:00;2.97;;;2.10;;
3791;SDS011;1911;53.768;11.474;2023-04-12T23:04:26;6.57;;;4.50;;
3791;SDS011;1911;53.768;11.474;2023-04-12T23:06:52;6.77;;;4.30;;
3791;SDS011;1911;53.768;11.474;2023-04-12T23:09:19;6.17;;;3.47;;
3791;SDS011;1911;53.768;11.474;2023-04-12T23:11:45;7.33;;;4.30;;
3791;SDS011;1911;53.768;11.474;2023-04-12T23:14:11;4.30;;;3.20;;
3791;SDS011;1911;53.768;11.474;2023-04-12T23:16:40;6.67;;;3.87;;
3791;SDS011;1911;53.768;11.474;2023-04-12T23:19:08;5.50;;;3.33;;
3791;SDS011;1911;53.768;11.474;2023-04-12T23:21:34;4.47;;;3.47;;
3791;SDS011;1911;53.768;11.474;2023-04-12T23:24:01;5.07;;;3.70;;
3791;SDS011;1911;53.768;11.474;2023-04-12T23:26:27;11.40;;;5.40;;
3791;SDS011;1911;53.768;11.474;2023-04-12T23:28:52;7.10;;;4.53;;
3791;SDS011;1911;53.768;11.474;2023-04-12T23:31:18;9.63;;;6.43;;
3791;SDS011;1911;53.768;11.474;2023-04-12T23:33:44;10.50;;;6.77;;
3791;SDS011;1911;53.768;11.474;2023-04-12T23:36:11;10.50;;;6.57;;
3791;SDS011;1911;53.768;11.474;2023-04-12T23:38:37;11.80;;;7.70;;
3791;SDS011;1911;53.768;11.474;2023-04-12T23:41:05;10.13;;;6.40;;
3791;SDS011;1911;53.768;11.474;2023-04-12T23:43:35;15.00;;;7.80;;
3791;SDS011;1911;53.768;11.474;2023-04-12T23:46:02;9.57;;;7.10;;
3791;SDS011;1911;53.768;11.474;2023-04-12T23:48:29;11.60;;;7.00;;
3791;SDS011;1911;53.768;11.474;2023-04-12T23:50:56;12.33;;;6.87;;
3791;SDS011;1911;53.768;11.474;2023-04-12T23:53:22;11.13;;;6.70;;
3791;SDS011;1911;53.768;11.474;2023-04-12T23:55:49;11.07;;;6.70;;
3791;SDS011;1911;53.768;11.474;2023-04-12T23:58:16;12.17;;;7.37;;
